sensor_id;sensor_type;location;lat;lon;timestamp;P1;durP1;ratioP1;P2;durP2;ratioP2
65583;SDS011;70321;43.592;1.456;2023-07-02T00:01:44;3.88;;;2.30;;
65583;SDS011;70321;43.592;1.456;2023-07-02T00:04:10;6.10;;;2.20;;
65583;SDS011;70321;43.592;1.456;2023-07-02T00:06:38;7.32;;;2.47;;
65583;SDS011;70321;43.592;1.456;2023-07-02T00:09:09;6.20;;;2.20;;
65583;SDS011;70321;43.592;1.456;2023-07-02T00:11:38;6.43;;;2.50;;
65583;SDS011;70321;43.592;1.456;2023-07-02T00:14:07;4.82;;;2.53;;
65583;SDS011;70321;43.592;1.456;2023-07-02T00:16:34;4.07;;;2.25;;
65583;SDS011;70321;43.592;1.456;2023-07-02T00:19:00;4.97;;;2.40;;
65583;SDS011;70321;43.592;1.456;2023-07-02T00:21:28;3.90;;;2.22;;
65583;SDS011;70321;43.592;1.456;2023-07-02T00:23:54;6.38;;;2.65;;
65583;SDS011;70321;43.592;1.456;2023-07-02T00:26:22;5.22;;;2.65;;
65583;SDS011;70321;43.592;1.456;2023-07-02T00:28:49;6.22;;;2.53;;
65583;SDS011;70321;43.592;1.456;2023-07-02T00:31:14;5.35;;;2.50;;
65583;SDS011;70321;43.592;1.456;2023-07-02T00:33:40;4.95;;;2.20;;
65583;SDS011;70321;43.592;1.456;2023-07-02T00:36:05;7.13;;;2.78;;
65583;SDS011;70321;43.592;1.456;2023-07-02T00:38:31;4.57;;;2.42;;
65583;SDS011;70321;43.592;1.456;2023-07-02T00:40:56;3.78;;;2.38;;
65583;SDS011;70321;43.592;1.456;2023-07-02T00:43:22;5.18;;;2.90;;
65583;SDS011;70321;43.592;1.456;2023-07-02T00:45:47;5.65;;;3.08;;
65583;SDS011;70321;43.592;1.456;2023-07-02T00:48:13;6.25;;;2.50;;
65583;SDS011;70321;43.592;1.456;2023-07-02T00:50:39;5.05;;;2.45;;
65583;SDS011;70321;43.592;1.456;2023-07-02T00:53:04;5.65;;;2.60;;
65583;SDS011;70321;43.592;1.456;2023-07-02T00:55:30;5.72;;;2.83;;
65583;SDS011;70321;43.592;1.456;2023-07-02T00:57:55;6.15;;;2.95;;
65583;SDS011;70321;43.592;1.456;2023-07-02T01:00:21;5.20;;;2.60;;
65583;SDS011;70321;43.592;1.456;2023-07-02T01:02:56;5.00;;;1.90;;
65583;SDS011;70321;43.592;1.456;2023-07-02T01:05:24;4.90;;;2.40;;
65583;SDS011;70321;43.592;1.456;2023-07-02T01:07:51;3.60;;;2.30;;
65583;SDS011;70321;43.592;1.456;2023-07-02T01:10:17;5.40;;;2.40;;
65583;SDS011;70321;43.592;1.456;2023-07-02T01:12:42;4.95;;;2.67;;
65583;SDS011;70321;43.592;1.456;2023-07-02T01:15:09;3.80;;;2.15;;
65583;SDS011;70321;43.592;1.456;2023-07-02T01:17:35;5.78;;;2.55;;
65583;SDS011;70321;43.592;1.456;2023-07-02T01:20:07;5.70;;;2.72;;
65583;SDS011;70321;43.592;1.456;2023-07-02T01:22:34;3.63;;;2.38;;
65583;SDS011;70321;43.592;1.456;2023-07-02T01:25:00;7.97;;;2.42;;
65583;SDS011;70321;43.592;1.456;2023-07-02T01:27:29;4.13;;;2.33;;
65583;SDS011;70321;43.592;1.456;2023-07-02T01:29:55;5.75;;;2.85;;
65583;SDS011;70321;43.592;1.456;2023-07-02T01:32:21;6.70;;;2.60;;
65583;SDS011;70321;43.592;1.456;2023-07-02T01:34:47;4.05;;;2.25;;
65583;SDS011;70321;43.592;1.456;2023-07-02T01:37:18;3.67;;;2.28;;
65583;SDS011;70321;43.592;1.456;2023-07-02T01:39:44;7.50;;;2.70;;
65583;SDS011;70321;43.592;1.456;2023-07-02T01:42:10;5.57;;;2.15;;
65583;SDS011;70321;43.592;1.456;2023-07-02T01:44:45;3.90;;;2.17;;
65583;SDS011;70321;43.592;1.456;2023-07-02T01:49:38;4.40;;;2.38;;
65583;SDS011;70321;43.592;1.456;2023-07-02T01:52:04;5.60;;;2.55;;
65583;SDS011;70321;43.592;1.456;2023-07-02T01:54:31;8.75;;;2.70;;
65583;SDS011;70321;43.592;1.456;2023-07-02T01:56:57;8.45;;;2.75;;
65583;SDS011;70321;43.592;1.456;2023-07-02T01:59:22;5.45;;;2.83;;
65583;SDS011;70321;43.592;1.456;2023-07-02T02:01:48;5.78;;;2.40;;
65583;SDS011;70321;43.592;1.456;2023-07-02T02:04:14;5.53;;;2.42;;
65583;SDS011;70321;43.592;1.456;2023-07-02T02:06:39;7.63;;;2.78;;
65583;SDS011;70321;43.592;1.456;2023-07-02T02:09:05;4.35;;;2.42;;
65583;SDS011;70321;43.592;1.456;2023-07-02T02:11:31;6.10;;;2.55;;
65583;SDS011;70321;43.592;1.456;2023-07-02T02:13:57;6.07;;;2.75;;
65583;SDS011;70321;43.592;1.456;2023-07-02T02:16:23;5.80;;;2.78;;
65583;SDS011;70321;43.592;1.456;2023-07-02T02:18:49;5.75;;;2.42;;
65583;SDS011;70321;43.592;1.456;2023-07-02T02:21:17;5.28;;;2.25;;
65583;SDS011;70321;43.592;1.456;2023-07-02T02:23:42;3.90;;;2.28;;
65583;SDS011;70321;43.592;1.456;2023-07-02T02:26:08;4.45;;;2.80;;
65583;SDS011;70321;43.592;1.456;2023-07-02T02:28:33;3.75;;;2.05;;
65583;SDS011;70321;43.592;1.456;2023-07-02T02:30:59;4.25;;;2.33;;
65583;SDS011;70321;43.592;1.456;2023-07-02T02:33:24;4.43;;;2.42;;
65583;SDS011;70321;43.592;1.456;2023-07-02T02:35:50;3.35;;;2.15;;
65583;SDS011;70321;43.592;1.456;2023-07-02T02:38:15;5.63;;;2.53;;
65583;SDS011;70321;43.592;1.456;2023-07-02T02:40:41;3.85;;;2.30;;
65583;SDS011;70321;43.592;1.456;2023-07-02T02:43:06;4.72;;;2.33;;
65583;SDS011;70321;43.592;1.456;2023-07-02T02:45:32;4.63;;;2.22;;
65583;SDS011;70321;43.592;1.456;2023-07-02T02:47:57;4.03;;;2.42;;
65583;SDS011;70321;43.592;1.456;2023-07-02T02:50:22;5.03;;;2.65;;
65583;SDS011;70321;43.592;1.456;2023-07-02T02:52:48;5.15;;;2.80;;
65583;SDS011;70321;43.592;1.456;2023-07-02T02:55:13;4.88;;;2.40;;
65583;SDS011;70321;43.592;1.456;2023-07-02T02:57:39;5.32;;;2.60;;
65583;SDS011;70321;43.592;1.456;2023-07-02T03:00:04;6.20;;;2.38;;
65583;SDS011;70321;43.592;1.456;2023-07-02T03:02:32;6.80;;;2.40;;
65583;SDS011;70321;43.592;1.456;2023-07-02T03:04:57;4.00;;;2.30;;
65583;SDS011;70321;43.592;1.456;2023-07-02T03:07:27;6.00;;;3.00;;
65583;SDS011;70321;43.592;1.456;2023-07-02T03:09:53;5.18;;;2.63;;
65583;SDS011;70321;43.592;1.456;2023-07-02T03:12:19;4.25;;;2.17;;
65583;SDS011;70321;43.592;1.456;2023-07-02T03:14:44;4.78;;;2.55;;
65583;SDS011;70321;43.592;1.456;2023-07-02T03:17:10;5.70;;;2.60;;
65583;SDS011;70321;43.592;1.456;2023-07-02T03:19:35;4.90;;;2.75;;
65583;SDS011;70321;43.592;1.456;2023-07-02T03:22:00;4.07;;;2.60;;
65583;SDS011;70321;43.592;1.456;2023-07-02T03:24:26;5.60;;;2.53;;
65583;SDS011;70321;43.592;1.456;2023-07-02T03:26:51;6.63;;;2.50;;
65583;SDS011;70321;43.592;1.456;2023-07-02T03:29:17;4.60;;;2.80;;
65583;SDS011;70321;43.592;1.456;2023-07-02T03:31:44;7.20;;;2.97;;
65583;SDS011;70321;43.592;1.456;2023-07-02T03:34:10;7.60;;;2.88;;
65583;SDS011;70321;43.592;1.456;2023-07-02T03:36:36;5.93;;;2.90;;
65583;SDS011;70321;43.592;1.456;2023-07-02T03:39:02;6.63;;;3.13;;
65583;SDS011;70321;43.592;1.456;2023-07-02T03:41:28;4.03;;;2.60;;
65583;SDS011;70321;43.592;1.456;2023-07-02T03:43:54;7.68;;;3.22;;
65583;SDS011;70321;43.592;1.456;2023-07-02T03:46:19;7.53;;;3.08;;
65583;SDS011;70321;43.592;1.456;2023-07-02T03:48:45;5.47;;;2.50;;
65583;SDS011;70321;43.592;1.456;2023-07-02T03:51:10;7.07;;;2.90;;
65583;SDS011;70321;43.592;1.456;2023-07-02T03:53:39;6.32;;;3.20;;
65583;SDS011;70321;43.592;1.456;2023-07-02T03:56:05;6.38;;;3.03;;
65583;SDS011;70321;43.592;1.456;2023-07-02T03:58:30;8.73;;;3.53;;
65583;SDS011;70321;43.592;1.456;2023-07-02T04:00:55;6.20;;;3.78;;
65583;SDS011;70321;43.592;1.456;2023-07-02T04:03:21;6.50;;;3.80;;
65583;SDS011;70321;43.592;1.456;2023-07-02T04:05:46;6.88;;;3.75;;
65583;SDS011;70321;43.592;1.456;2023-07-02T04:08:11;7.45;;;3.78;;
65583;SDS011;70321;43.592;1.456;2023-07-02T04:10:37;6.82;;;3.08;;
65583;SDS011;70321;43.592;1.456;2023-07-02T04:13:02;6.85;;;3.03;;
65583;SDS011;70321;43.592;1.456;2023-07-02T04:15:28;6.35;;;2.60;;
65583;SDS011;70321;43.592;1.456;2023-07-02T04:17:53;5.00;;;3.00;;
65583;SDS011;70321;43.592;1.456;2023-07-02T04:20:19;8.65;;;2.90;;
65583;SDS011;70321;43.592;1.456;2023-07-02T04:22:45;5.30;;;2.95;;
65583;SDS011;70321;43.592;1.456;2023-07-02T04:25:11;5.55;;;2.58;;
65583;SDS011;70321;43.592;1.456;2023-07-02T04:27:40;5.90;;;3.05;;
65583;SDS011;70321;43.592;1.456;2023-07-02T04:30:07;9.00;;;2.55;;
65583;SDS011;70321;43.592;1.456;2023-07-02T04:32:33;6.78;;;2.80;;
65583;SDS011;70321;43.592;1.456;2023-07-02T04:34:58;6.15;;;2.58;;
65583;SDS011;70321;43.592;1.456;2023-07-02T04:37:24;5.55;;;2.40;;
65583;SDS011;70321;43.592;1.456;2023-07-02T04:39:49;6.15;;;2.40;;
65583;SDS011;70321;43.592;1.456;2023-07-02T04:42:15;4.20;;;2.10;;
65583;SDS011;70321;43.592;1.456;2023-07-02T04:44:40;5.50;;;2.03;;
65583;SDS011;70321;43.592;1.456;2023-07-02T04:47:08;5.60;;;1.70;;
65583;SDS011;70321;43.592;1.456;2023-07-02T04:49:33;8.32;;;2.78;;
65583;SDS011;70321;43.592;1.456;2023-07-02T04:51:59;3.65;;;2.13;;
65583;SDS011;70321;43.592;1.456;2023-07-02T04:54:24;3.03;;;1.60;;
65583;SDS011;70321;43.592;1.456;2023-07-02T04:56:49;5.35;;;2.10;;
65583;SDS011;70321;43.592;1.456;2023-07-02T04:59:15;4.35;;;2.10;;
65583;SDS011;70321;43.592;1.456;2023-07-02T05:01:41;4.68;;;1.83;;
65583;SDS011;70321;43.592;1.456;2023-07-02T05:04:09;3.90;;;2.10;;
65583;SDS011;70321;43.592;1.456;2023-07-02T05:06:36;8.38;;;2.05;;
65583;SDS011;70321;43.592;1.456;2023-07-02T05:09:02;3.95;;;1.63;;
65583;SDS011;70321;43.592;1.456;2023-07-02T05:11:27;2.92;;;1.63;;
65583;SDS011;70321;43.592;1.456;2023-07-02T05:13:53;5.72;;;2.17;;
65583;SDS011;70321;43.592;1.456;2023-07-02T05:16:18;2.85;;;1.42;;
65583;SDS011;70321;43.592;1.456;2023-07-02T05:18:43;3.83;;;1.50;;
65583;SDS011;70321;43.592;1.456;2023-07-02T05:21:09;4.72;;;2.05;;
65583;SDS011;70321;43.592;1.456;2023-07-02T05:23:35;3.70;;;1.95;;
65583;SDS011;70321;43.592;1.456;2023-07-02T05:26:01;5.75;;;1.63;;
65583;SDS011;70321;43.592;1.456;2023-07-02T05:28:26;5.55;;;1.70;;
65583;SDS011;70321;43.592;1.456;2023-07-02T05:30:52;5.57;;;1.60;;
65583;SDS011;70321;43.592;1.456;2023-07-02T05:33:17;2.78;;;1.52;;
65583;SDS011;70321;43.592;1.456;2023-07-02T05:35:42;3.08;;;1.50;;
65583;SDS011;70321;43.592;1.456;2023-07-02T05:38:08;3.15;;;1.42;;
65583;SDS011;70321;43.592;1.456;2023-07-02T05:40:33;3.80;;;1.80;;
65583;SDS011;70321;43.592;1.456;2023-07-02T05:42:59;2.08;;;1.42;;
65583;SDS011;70321;43.592;1.456;2023-07-02T05:45:24;3.60;;;2.15;;
65583;SDS011;70321;43.592;1.456;2023-07-02T05:47:49;3.70;;;1.75;;
65583;SDS011;70321;43.592;1.456;2023-07-02T05:50:15;3.50;;;1.50;;
65583;SDS011;70321;43.592;1.456;2023-07-02T05:52:40;2.70;;;1.40;;
65583;SDS011;70321;43.592;1.456;2023-07-02T05:55:09;2.08;;;1.23;;
65583;SDS011;70321;43.592;1.456;2023-07-02T05:57:37;4.32;;;1.40;;
65583;SDS011;70321;43.592;1.456;2023-07-02T06:00:06;3.53;;;1.45;;
65583;SDS011;70321;43.592;1.456;2023-07-02T06:02:32;2.67;;;1.50;;
65583;SDS011;70321;43.592;1.456;2023-07-02T06:04:57;4.63;;;1.75;;
65583;SDS011;70321;43.592;1.456;2023-07-02T06:07:24;3.05;;;1.52;;
65583;SDS011;70321;43.592;1.456;2023-07-02T06:09:49;2.00;;;1.30;;
65583;SDS011;70321;43.592;1.456;2023-07-02T06:12:15;2.47;;;1.33;;
65583;SDS011;70321;43.592;1.456;2023-07-02T06:14:40;4.35;;;1.27;;
65583;SDS011;70321;43.592;1.456;2023-07-02T06:17:06;2.30;;;1.50;;
65583;SDS011;70321;43.592;1.456;2023-07-02T06:19:33;2.88;;;1.60;;
65583;SDS011;70321;43.592;1.456;2023-07-02T06:21:58;6.05;;;1.60;;
65583;SDS011;70321;43.592;1.456;2023-07-02T06:24:24;3.88;;;1.42;;
65583;SDS011;70321;43.592;1.456;2023-07-02T06:26:50;3.70;;;1.52;;
65583;SDS011;70321;43.592;1.456;2023-07-02T06:29:15;2.38;;;1.23;;
65583;SDS011;70321;43.592;1.456;2023-07-02T06:31:40;3.95;;;2.00;;
65583;SDS011;70321;43.592;1.456;2023-07-02T06:34:06;2.25;;;1.40;;
65583;SDS011;70321;43.592;1.456;2023-07-02T06:36:33;2.65;;;1.23;;
65583;SDS011;70321;43.592;1.456;2023-07-02T06:38:59;2.47;;;1.33;;
65583;SDS011;70321;43.592;1.456;2023-07-02T06:41:24;3.20;;;1.60;;
65583;SDS011;70321;43.592;1.456;2023-07-02T06:43:49;3.95;;;1.40;;
65583;SDS011;70321;43.592;1.456;2023-07-02T06:46:15;3.17;;;1.40;;
65583;SDS011;70321;43.592;1.456;2023-07-02T06:48:40;6.20;;;2.13;;
65583;SDS011;70321;43.592;1.456;2023-07-02T06:51:06;2.55;;;1.63;;
65583;SDS011;70321;43.592;1.456;2023-07-02T06:53:32;4.03;;;1.63;;
65583;SDS011;70321;43.592;1.456;2023-07-02T06:55:58;3.05;;;1.25;;
65583;SDS011;70321;43.592;1.456;2023-07-02T06:58:23;5.28;;;1.20;;
65583;SDS011;70321;43.592;1.456;2023-07-02T07:00:48;3.78;;;1.67;;
65583;SDS011;70321;43.592;1.456;2023-07-02T07:03:14;3.33;;;1.48;;
65583;SDS011;70321;43.592;1.456;2023-07-02T07:05:39;3.72;;;1.20;;
65583;SDS011;70321;43.592;1.456;2023-07-02T07:08:04;9.88;;;1.50;;
65583;SDS011;70321;43.592;1.456;2023-07-02T07:10:30;2.90;;;1.05;;
65583;SDS011;70321;43.592;1.456;2023-07-02T07:12:59;2.63;;;1.33;;
65583;SDS011;70321;43.592;1.456;2023-07-02T07:15:29;2.63;;;1.20;;
65583;SDS011;70321;43.592;1.456;2023-07-02T07:17:55;4.18;;;1.45;;
65583;SDS011;70321;43.592;1.456;2023-07-02T07:20:21;2.08;;;1.23;;
65583;SDS011;70321;43.592;1.456;2023-07-02T07:22:46;3.42;;;1.20;;
65583;SDS011;70321;43.592;1.456;2023-07-02T07:25:11;2.60;;;1.42;;
65583;SDS011;70321;43.592;1.456;2023-07-02T07:27:37;2.03;;;1.10;;
65583;SDS011;70321;43.592;1.456;2023-07-02T07:30:03;2.33;;;1.40;;
65583;SDS011;70321;43.592;1.456;2023-07-02T07:32:29;1.58;;;1.02;;
65583;SDS011;70321;43.592;1.456;2023-07-02T07:34:54;2.17;;;1.25;;
65583;SDS011;70321;43.592;1.456;2023-07-02T07:37:20;2.33;;;1.70;;
65583;SDS011;70321;43.592;1.456;2023-07-02T07:39:45;3.58;;;1.20;;
65583;SDS011;70321;43.592;1.456;2023-07-02T07:42:10;2.28;;;1.27;;
65583;SDS011;70321;43.592;1.456;2023-07-02T07:44:36;2.15;;;1.20;;
65583;SDS011;70321;43.592;1.456;2023-07-02T07:47:01;2.85;;;1.30;;
65583;SDS011;70321;43.592;1.456;2023-07-02T07:49:27;2.15;;;1.00;;
65583;SDS011;70321;43.592;1.456;2023-07-02T07:51:52;1.92;;;1.02;;
65583;SDS011;70321;43.592;1.456;2023-07-02T07:54:17;1.95;;;1.10;;
65583;SDS011;70321;43.592;1.456;2023-07-02T07:56:43;1.50;;;1.00;;
65583;SDS011;70321;43.592;1.456;2023-07-02T07:59:08;1.67;;;0.80;;
65583;SDS011;70321;43.592;1.456;2023-07-02T08:01:33;2.47;;;1.08;;
65583;SDS011;70321;43.592;1.456;2023-07-02T08:03:59;1.42;;;0.90;;
65583;SDS011;70321;43.592;1.456;2023-07-02T08:06:24;1.80;;;1.10;;
65583;SDS011;70321;43.592;1.456;2023-07-02T08:08:50;1.98;;;0.98;;
65583;SDS011;70321;43.592;1.456;2023-07-02T08:11:15;1.35;;;0.80;;
65583;SDS011;70321;43.592;1.456;2023-07-02T08:13:40;1.23;;;0.82;;
65583;SDS011;70321;43.592;1.456;2023-07-02T08:16:07;3.50;;;0.95;;
65583;SDS011;70321;43.592;1.456;2023-07-02T08:18:34;1.50;;;1.10;;
65583;SDS011;70321;43.592;1.456;2023-07-02T08:20:59;1.80;;;1.00;;
65583;SDS011;70321;43.592;1.456;2023-07-02T08:23:25;1.20;;;0.95;;
65583;SDS011;70321;43.592;1.456;2023-07-02T08:25:50;1.70;;;0.88;;
65583;SDS011;70321;43.592;1.456;2023-07-02T08:28:15;1.45;;;0.75;;
65583;SDS011;70321;43.592;1.456;2023-07-02T08:30:41;5.35;;;1.08;;
65583;SDS011;70321;43.592;1.456;2023-07-02T08:33:06;2.40;;;1.00;;
65583;SDS011;70321;43.592;1.456;2023-07-02T08:35:32;1.52;;;1.00;;
65583;SDS011;70321;43.592;1.456;2023-07-02T08:37:57;2.67;;;0.98;;
65583;SDS011;70321;43.592;1.456;2023-07-02T08:40:22;1.73;;;1.10;;
65583;SDS011;70321;43.592;1.456;2023-07-02T08:42:48;1.67;;;1.00;;
65583;SDS011;70321;43.592;1.456;2023-07-02T08:45:16;1.73;;;0.85;;
65583;SDS011;70321;43.592;1.456;2023-07-02T08:47:43;1.55;;;0.80;;
65583;SDS011;70321;43.592;1.456;2023-07-02T08:50:11;1.75;;;0.90;;
65583;SDS011;70321;43.592;1.456;2023-07-02T08:52:37;2.42;;;0.90;;
65583;SDS011;70321;43.592;1.456;2023-07-02T08:55:02;1.20;;;0.77;;
65583;SDS011;70321;43.592;1.456;2023-07-02T08:57:28;1.08;;;0.60;;
65583;SDS011;70321;43.592;1.456;2023-07-02T08:59:53;1.13;;;0.75;;
65583;SDS011;70321;43.592;1.456;2023-07-02T09:02:29;1.20;;;0.60;;
65583;SDS011;70321;43.592;1.456;2023-07-02T09:04:58;0.82;;;0.60;;
65583;SDS011;70321;43.592;1.456;2023-07-02T09:07:27;0.90;;;0.63;;
65583;SDS011;70321;43.592;1.456;2023-07-02T09:09:53;1.77;;;0.65;;
65583;SDS011;70321;43.592;1.456;2023-07-02T09:12:36;0.60;;;0.47;;
65583;SDS011;70321;43.592;1.456;2023-07-02T09:15:04;1.33;;;0.68;;
65583;SDS011;70321;43.592;1.456;2023-07-02T09:17:35;0.28;;;0.28;;
65583;SDS011;70321;43.592;1.456;2023-07-02T09:20:02;0.28;;;0.20;;
65583;SDS011;70321;43.592;1.456;2023-07-02T09:22:31;0.63;;;0.27;;
65583;SDS011;70321;43.592;1.456;2023-07-02T09:24:58;0.13;;;0.10;;
65583;SDS011;70321;43.592;1.456;2023-07-02T09:27:37;0.20;;;0.20;;
65583;SDS011;70321;43.592;1.456;2023-07-02T09:30:13;0.40;;;0.30;;
65583;SDS011;70321;43.592;1.456;2023-07-02T09:32:43;2.05;;;0.30;;
65583;SDS011;70321;43.592;1.456;2023-07-02T09:35:09;0.25;;;0.20;;
65583;SDS011;70321;43.592;1.456;2023-07-02T09:37:35;0.55;;;0.38;;
65583;SDS011;70321;43.592;1.456;2023-07-02T09:40:01;0.30;;;0.20;;
65583;SDS011;70321;43.592;1.456;2023-07-02T09:42:30;1.00;;;0.45;;
65583;SDS011;70321;43.592;1.456;2023-07-02T09:44:56;0.40;;;0.30;;
65583;SDS011;70321;43.592;1.456;2023-07-02T09:47:24;0.52;;;0.40;;
65583;SDS011;70321;43.592;1.456;2023-07-02T09:49:54;0.30;;;0.20;;
65583;SDS011;70321;43.592;1.456;2023-07-02T09:52:23;0.45;;;0.45;;
65583;SDS011;70321;43.592;1.456;2023-07-02T09:54:48;0.45;;;0.22;;
65583;SDS011;70321;43.592;1.456;2023-07-02T09:57:14;0.63;;;0.52;;
65583;SDS011;70321;43.592;1.456;2023-07-02T09:59:39;0.30;;;0.25;;
65583;SDS011;70321;43.592;1.456;2023-07-02T10:02:05;0.10;;;0.10;;
65583;SDS011;70321;43.592;1.456;2023-07-02T10:04:42;1.23;;;0.40;;
65583;SDS011;70321;43.592;1.456;2023-07-02T10:07:08;0.28;;;0.20;;
65583;SDS011;70321;43.592;1.456;2023-07-02T10:09:35;0.20;;;0.10;;
65583;SDS011;70321;43.592;1.456;2023-07-02T10:12:00;0.43;;;0.32;;
65583;SDS011;70321;43.592;1.456;2023-07-02T10:14:26;0.38;;;0.20;;
65583;SDS011;70321;43.592;1.456;2023-07-02T10:16:52;0.28;;;0.20;;
65583;SDS011;70321;43.592;1.456;2023-07-02T10:19:18;0.35;;;0.20;;
65583;SDS011;70321;43.592;1.456;2023-07-02T10:21:44;0.63;;;0.20;;
65583;SDS011;70321;43.592;1.456;2023-07-02T10:24:17;2.75;;;0.40;;
65583;SDS011;70321;43.592;1.456;2023-07-02T10:26:58;0.25;;;0.15;;
65583;SDS011;70321;43.592;1.456;2023-07-02T10:29:26;0.32;;;0.32;;
65583;SDS011;70321;43.592;1.456;2023-07-02T10:31:53;0.20;;;0.20;;
65583;SDS011;70321;43.592;1.456;2023-07-02T10:34:32;0.13;;;0.10;;
65583;SDS011;70321;43.592;1.456;2023-07-02T10:37:02;0.20;;;0.20;;
65583;SDS011;70321;43.592;1.456;2023-07-02T10:42:08;1.35;;;0.40;;
65583;SDS011;70321;43.592;1.456;2023-07-02T10:44:34;0.38;;;0.20;;
65583;SDS011;70321;43.592;1.456;2023-07-02T10:47:11;0.17;;;0.10;;
65583;SDS011;70321;43.592;1.456;2023-07-02T10:49:36;0.35;;;0.22;;
65583;SDS011;70321;43.592;1.456;2023-07-02T10:52:02;0.10;;;0.10;;
65583;SDS011;70321;43.592;1.456;2023-07-02T10:54:42;0.38;;;0.25;;
65583;SDS011;70321;43.592;1.456;2023-07-02T10:57:10;0.45;;;0.32;;
65583;SDS011;70321;43.592;1.456;2023-07-02T10:59:38;0.28;;;0.28;;
65583;SDS011;70321;43.592;1.456;2023-07-02T11:02:03;1.13;;;0.30;;
65583;SDS011;70321;43.592;1.456;2023-07-02T11:04:32;0.30;;;0.25;;
65583;SDS011;70321;43.592;1.456;2023-07-02T11:06:59;0.60;;;0.30;;
65583;SDS011;70321;43.592;1.456;2023-07-02T11:09:25;0.30;;;0.30;;
65583;SDS011;70321;43.592;1.456;2023-07-02T11:11:57;0.47;;;0.40;;
65583;SDS011;70321;43.592;1.456;2023-07-02T11:14:27;0.85;;;0.75;;
65583;SDS011;70321;43.592;1.456;2023-07-02T11:16:56;0.30;;;0.13;;
65583;SDS011;70321;43.592;1.456;2023-07-02T11:19:28;1.13;;;0.30;;
65583;SDS011;70321;43.592;1.456;2023-07-02T11:21:54;0.35;;;0.30;;
65583;SDS011;70321;43.592;1.456;2023-07-02T11:26:56;0.77;;;0.40;;
65583;SDS011;70321;43.592;1.456;2023-07-02T11:29:23;0.90;;;0.50;;
65583;SDS011;70321;43.592;1.456;2023-07-02T11:31:48;0.30;;;0.28;;
65583;SDS011;70321;43.592;1.456;2023-07-02T11:34:17;0.50;;;0.38;;
65583;SDS011;70321;43.592;1.456;2023-07-02T11:36:46;0.55;;;0.30;;
65583;SDS011;70321;43.592;1.456;2023-07-02T11:39:12;0.10;;;0.10;;
65583;SDS011;70321;43.592;1.456;2023-07-02T11:41:40;0.20;;;0.20;;
65583;SDS011;70321;43.592;1.456;2023-07-02T11:44:07;0.45;;;0.40;;
65583;SDS011;70321;43.592;1.456;2023-07-02T11:46:33;0.30;;;0.30;;
65583;SDS011;70321;43.592;1.456;2023-07-02T11:49:02;0.70;;;0.43;;
65583;SDS011;70321;43.592;1.456;2023-07-02T11:51:34;0.45;;;0.30;;
65583;SDS011;70321;43.592;1.456;2023-07-02T11:54:03;0.22;;;0.22;;
65583;SDS011;70321;43.592;1.456;2023-07-02T11:56:29;1.85;;;0.20;;
65583;SDS011;70321;43.592;1.456;2023-07-02T11:58:55;0.13;;;0.13;;
65583;SDS011;70321;43.592;1.456;2023-07-02T12:01:20;0.68;;;0.35;;
65583;SDS011;70321;43.592;1.456;2023-07-02T12:03:45;0.43;;;0.40;;
65583;SDS011;70321;43.592;1.456;2023-07-02T12:06:11;1.20;;;0.75;;
65583;SDS011;70321;43.592;1.456;2023-07-02T12:08:39;0.60;;;0.40;;
65583;SDS011;70321;43.592;1.456;2023-07-02T12:11:05;0.30;;;0.30;;
65583;SDS011;70321;43.592;1.456;2023-07-02T12:13:30;0.95;;;0.30;;
65583;SDS011;70321;43.592;1.456;2023-07-02T12:15:55;0.30;;;0.30;;
65583;SDS011;70321;43.592;1.456;2023-07-02T12:18:21;0.30;;;0.30;;
65583;SDS011;70321;43.592;1.456;2023-07-02T12:20:46;0.73;;;0.65;;
65583;SDS011;70321;43.592;1.456;2023-07-02T12:23:12;0.30;;;0.30;;
65583;SDS011;70321;43.592;1.456;2023-07-02T12:25:37;0.68;;;0.60;;
65583;SDS011;70321;43.592;1.456;2023-07-02T12:28:03;0.73;;;0.60;;
65583;SDS011;70321;43.592;1.456;2023-07-02T12:30:29;0.45;;;0.38;;
65583;SDS011;70321;43.592;1.456;2023-07-02T12:32:55;0.40;;;0.40;;
65583;SDS011;70321;43.592;1.456;2023-07-02T12:35:21;1.52;;;0.68;;
65583;SDS011;70321;43.592;1.456;2023-07-02T12:37:51;0.65;;;0.50;;
65583;SDS011;70321;43.592;1.456;2023-07-02T12:40:18;1.13;;;0.40;;
65583;SDS011;70321;43.592;1.456;2023-07-02T12:42:45;1.13;;;0.50;;
65583;SDS011;70321;43.592;1.456;2023-07-02T12:45:12;0.60;;;0.57;;
65583;SDS011;70321;43.592;1.456;2023-07-02T12:47:39;0.50;;;0.43;;
65583;SDS011;70321;43.592;1.456;2023-07-02T12:50:05;0.70;;;0.40;;
65583;SDS011;70321;43.592;1.456;2023-07-02T12:52:31;1.23;;;0.57;;
65583;SDS011;70321;43.592;1.456;2023-07-02T12:54:57;0.60;;;0.60;;
65583;SDS011;70321;43.592;1.456;2023-07-02T12:57:22;0.63;;;0.50;;
65583;SDS011;70321;43.592;1.456;2023-07-02T12:59:48;0.60;;;0.40;;
65583;SDS011;70321;43.592;1.456;2023-07-02T13:02:13;1.33;;;0.70;;
65583;SDS011;70321;43.592;1.456;2023-07-02T13:04:39;0.57;;;0.52;;
65583;SDS011;70321;43.592;1.456;2023-07-02T13:07:04;0.90;;;0.50;;
65583;SDS011;70321;43.592;1.456;2023-07-02T13:09:30;1.30;;;0.68;;
65583;SDS011;70321;43.592;1.456;2023-07-02T13:11:55;0.63;;;0.47;;
65583;SDS011;70321;43.592;1.456;2023-07-02T13:14:21;1.15;;;0.60;;
65583;SDS011;70321;43.592;1.456;2023-07-02T13:16:46;0.63;;;0.50;;
65583;SDS011;70321;43.592;1.456;2023-07-02T13:19:12;1.58;;;0.70;;
65583;SDS011;70321;43.592;1.456;2023-07-02T13:21:38;1.00;;;0.50;;
65583;SDS011;70321;43.592;1.456;2023-07-02T13:24:03;1.27;;;0.60;;
65583;SDS011;70321;43.592;1.456;2023-07-02T13:26:29;1.08;;;0.60;;
65583;SDS011;70321;43.592;1.456;2023-07-02T13:28:54;1.10;;;0.60;;
65583;SDS011;70321;43.592;1.456;2023-07-02T13:31:20;1.30;;;0.60;;
65583;SDS011;70321;43.592;1.456;2023-07-02T13:33:45;0.70;;;0.50;;
65583;SDS011;70321;43.592;1.456;2023-07-02T13:36:11;1.40;;;0.90;;
65583;SDS011;70321;43.592;1.456;2023-07-02T13:38:37;0.70;;;0.50;;
65583;SDS011;70321;43.592;1.456;2023-07-02T13:41:02;0.45;;;0.40;;
65583;SDS011;70321;43.592;1.456;2023-07-02T13:43:28;1.15;;;0.60;;
65583;SDS011;70321;43.592;1.456;2023-07-02T13:45:53;2.50;;;0.75;;
65583;SDS011;70321;43.592;1.456;2023-07-02T13:48:19;2.38;;;0.57;;
65583;SDS011;70321;43.592;1.456;2023-07-02T13:50:44;0.85;;;0.60;;
65583;SDS011;70321;43.592;1.456;2023-07-02T13:53:09;0.60;;;0.40;;
65583;SDS011;70321;43.592;1.456;2023-07-02T13:55:35;0.90;;;0.70;;
65583;SDS011;70321;43.592;1.456;2023-07-02T13:58:00;0.40;;;0.40;;
65583;SDS011;70321;43.592;1.456;2023-07-02T14:00:26;0.73;;;0.43;;
65583;SDS011;70321;43.592;1.456;2023-07-02T14:02:52;0.80;;;0.60;;
65583;SDS011;70321;43.592;1.456;2023-07-02T14:05:18;0.40;;;0.40;;
65583;SDS011;70321;43.592;1.456;2023-07-02T14:07:43;0.47;;;0.47;;
65583;SDS011;70321;43.592;1.456;2023-07-02T14:10:09;1.40;;;0.65;;
65583;SDS011;70321;43.592;1.456;2023-07-02T14:12:37;0.80;;;0.60;;
65583;SDS011;70321;43.592;1.456;2023-07-02T14:15:02;0.60;;;0.52;;
65583;SDS011;70321;43.592;1.456;2023-07-02T14:17:28;0.60;;;0.55;;
65583;SDS011;70321;43.592;1.456;2023-07-02T14:19:53;0.88;;;0.50;;
65583;SDS011;70321;43.592;1.456;2023-07-02T14:22:19;1.50;;;0.50;;
65583;SDS011;70321;43.592;1.456;2023-07-02T14:24:44;1.73;;;0.50;;
65583;SDS011;70321;43.592;1.456;2023-07-02T14:27:10;0.50;;;0.50;;
65583;SDS011;70321;43.592;1.456;2023-07-02T14:29:35;0.77;;;0.50;;
65583;SDS011;70321;43.592;1.456;2023-07-02T14:32:00;0.85;;;0.50;;
65583;SDS011;70321;43.592;1.456;2023-07-02T14:34:26;1.33;;;0.55;;
65583;SDS011;70321;43.592;1.456;2023-07-02T14:36:52;0.47;;;0.47;;
65583;SDS011;70321;43.592;1.456;2023-07-02T14:39:17;0.52;;;0.40;;
65583;SDS011;70321;43.592;1.456;2023-07-02T14:41:43;0.43;;;0.30;;
65583;SDS011;70321;43.592;1.456;2023-07-02T14:44:08;1.20;;;0.50;;
65583;SDS011;70321;43.592;1.456;2023-07-02T14:46:34;1.80;;;0.45;;
65583;SDS011;70321;43.592;1.456;2023-07-02T14:48:59;0.60;;;0.50;;
65583;SDS011;70321;43.592;1.456;2023-07-02T14:51:25;0.30;;;0.30;;